sensor_id;sensor_type;location;lat;lon;timestamp;P1;durP1;ratioP1;P2;durP2;ratioP2
65706;SDS011;52423;43.512;5.220;2024-03-23T00:54:31;18.25;;;15.38;;
65706;SDS011;52423;43.512;5.220;2024-03-23T00:56:57;22.30;;;15.45;;
65706;SDS011;52423;43.512;5.220;2024-03-23T00:59:22;19.70;;;15.40;;
65706;SDS011;52423;43.512;5.220;2024-03-23T01:01:52;23.05;;;17.85;;
65706;SDS011;52423;43.512;5.220;2024-03-23T01:04:17;20.83;;;16.25;;
65706;SDS011;52423;43.512;5.220;2024-03-23T01:06:43;17.95;;;14.32;;
65706;SDS011;52423;43.512;5.220;2024-03-23T01:09:08;20.95;;;15.88;;
65706;SDS011;52423;43.512;5.220;2024-03-23T01:11:35;20.15;;;15.77;;
65706;SDS011;52423;43.512;5.220;2024-03-23T01:14:01;19.10;;;16.98;;
65706;SDS011;52423;43.512;5.220;2024-03-23T01:16:27;20.70;;;15.32;;
65706;SDS011;52423;43.512;5.220;2024-03-23T01:18:52;20.67;;;15.48;;
65706;SDS011;52423;43.512;5.220;2024-03-23T01:21:18;22.70;;;16.05;;
65706;SDS011;52423;43.512;5.220;2024-03-23T01:23:43;18.45;;;14.57;;
65706;SDS011;52423;43.512;5.220;2024-03-23T01:26:08;19.90;;;15.73;;
65706;SDS011;52423;43.512;5.220;2024-03-23T01:28:34;24.48;;;17.00;;
65706;SDS011;52423;43.512;5.220;2024-03-23T01:31:00;18.25;;;14.93;;
65706;SDS011;52423;43.512;5.220;2024-03-23T01:33:25;19.02;;;14.02;;
65706;SDS011;52423;43.512;5.220;2024-03-23T01:35:50;24.52;;;17.42;;
65706;SDS011;52423;43.512;5.220;2024-03-23T01:38:16;27.50;;;15.68;;
65706;SDS011;52423;43.512;5.220;2024-03-23T01:40:41;20.90;;;18.60;;
65706;SDS011;52423;43.512;5.220;2024-03-23T01:43:07;22.60;;;16.48;;
65706;SDS011;52423;43.512;5.220;2024-03-23T01:45:33;22.25;;;14.20;;
65706;SDS011;52423;43.512;5.220;2024-03-23T01:47:59;24.27;;;16.58;;
65706;SDS011;52423;43.512;5.220;2024-03-23T01:50:25;19.42;;;15.82;;
65706;SDS011;52423;43.512;5.220;2024-03-23T01:52:51;24.83;;;18.77;;
65706;SDS011;52423;43.512;5.220;2024-03-23T01:55:17;22.33;;;16.75;;
65706;SDS011;52423;43.512;5.220;2024-03-23T01:57:43;20.92;;;15.55;;
65706;SDS011;52423;43.512;5.220;2024-03-23T02:00:08;21.77;;;15.43;;
65706;SDS011;52423;43.512;5.220;2024-03-23T02:02:40;23.10;;;17.20;;
65706;SDS011;52423;43.512;5.220;2024-03-23T02:05:12;23.35;;;17.95;;
65706;SDS011;52423;43.512;5.220;2024-03-23T02:07:38;23.52;;;17.85;;
65706;SDS011;52423;43.512;5.220;2024-03-23T02:10:08;20.77;;;14.85;;
65706;SDS011;52423;43.512;5.220;2024-03-23T02:12:35;24.00;;;15.70;;
65706;SDS011;52423;43.512;5.220;2024-03-23T02:15:00;20.55;;;16.73;;
65706;SDS011;52423;43.512;5.220;2024-03-23T02:17:26;22.52;;;16.80;;
65706;SDS011;52423;43.512;5.220;2024-03-23T02:19:51;22.60;;;16.90;;
65706;SDS011;52423;43.512;5.220;2024-03-23T02:22:17;21.40;;;16.35;;
65706;SDS011;52423;43.512;5.220;2024-03-23T02:24:42;19.75;;;15.65;;
65706;SDS011;52423;43.512;5.220;2024-03-23T02:27:08;23.55;;;16.45;;
65706;SDS011;52423;43.512;5.220;2024-03-23T02:29:33;22.10;;;16.35;;
65706;SDS011;52423;43.512;5.220;2024-03-23T02:31:59;18.85;;;14.70;;
65706;SDS011;52423;43.512;5.220;2024-03-23T02:34:24;23.83;;;14.73;;
65706;SDS011;52423;43.512;5.220;2024-03-23T02:36:50;19.20;;;16.05;;
65706;SDS011;52423;43.512;5.220;2024-03-23T02:39:15;18.27;;;14.80;;
65706;SDS011;52423;43.512;5.220;2024-03-23T02:41:40;24.67;;;16.63;;
65706;SDS011;52423;43.512;5.220;2024-03-23T02:44:06;19.95;;;16.13;;
65706;SDS011;52423;43.512;5.220;2024-03-23T02:46:31;19.70;;;15.38;;
65706;SDS011;52423;43.512;5.220;2024-03-23T02:48:57;18.38;;;13.90;;
65706;SDS011;52423;43.512;5.220;2024-03-23T02:51:22;19.95;;;16.58;;
65706;SDS011;52423;43.512;5.220;2024-03-23T02:53:48;18.98;;;14.57;;
65706;SDS011;52423;43.512;5.220;2024-03-23T02:56:13;18.70;;;13.98;;
65706;SDS011;52423;43.512;5.220;2024-03-23T02:58:41;16.02;;;12.80;;
65706;SDS011;52423;43.512;5.220;2024-03-23T03:01:07;20.25;;;13.88;;
65706;SDS011;52423;43.512;5.220;2024-03-23T03:03:32;18.88;;;13.38;;
65706;SDS011;52423;43.512;5.220;2024-03-23T03:05:58;19.05;;;15.35;;
65706;SDS011;52423;43.512;5.220;2024-03-23T03:08:23;19.50;;;14.63;;
65706;SDS011;52423;43.512;5.220;2024-03-23T03:10:49;20.20;;;14.43;;
65706;SDS011;52423;43.512;5.220;2024-03-23T03:13:14;20.48;;;15.98;;
65706;SDS011;52423;43.512;5.220;2024-03-23T03:15:40;20.50;;;14.82;;
65706;SDS011;52423;43.512;5.220;2024-03-23T03:18:06;18.42;;;15.10;;
65706;SDS011;52423;43.512;5.220;2024-03-23T03:20:32;17.33;;;14.10;;
65706;SDS011;52423;43.512;5.220;2024-03-23T03:22:57;21.48;;;16.25;;
65706;SDS011;52423;43.512;5.220;2024-03-23T03:25:22;20.17;;;14.80;;
65706;SDS011;52423;43.512;5.220;2024-03-23T03:27:48;19.65;;;14.93;;
65706;SDS011;52423;43.512;5.220;2024-03-23T03:30:13;17.85;;;13.73;;
65706;SDS011;52423;43.512;5.220;2024-03-23T03:32:38;19.40;;;14.48;;
65706;SDS011;52423;43.512;5.220;2024-03-23T03:35:04;18.58;;;15.07;;
65706;SDS011;52423;43.512;5.220;2024-03-23T03:37:29;16.92;;;12.68;;
65706;SDS011;52423;43.512;5.220;2024-03-23T03:39:55;19.60;;;17.52;;
65706;SDS011;52423;43.512;5.220;2024-03-23T03:42:20;18.02;;;13.88;;
65706;SDS011;52423;43.512;5.220;2024-03-23T03:44:45;19.33;;;13.65;;
65706;SDS011;52423;43.512;5.220;2024-03-23T03:47:11;19.42;;;13.50;;
65706;SDS011;52423;43.512;5.220;2024-03-23T03:49:36;20.60;;;14.15;;
65706;SDS011;52423;43.512;5.220;2024-03-23T03:52:02;19.92;;;14.32;;
65706;SDS011;52423;43.512;5.220;2024-03-23T03:54:27;21.75;;;16.33;;
65706;SDS011;52423;43.512;5.220;2024-03-23T03:56:53;23.05;;;17.77;;
65706;SDS011;52423;43.512;5.220;2024-03-23T03:59:18;20.48;;;15.55;;
65706;SDS011;52423;43.512;5.220;2024-03-23T04:01:45;20.30;;;14.13;;
65706;SDS011;52423;43.512;5.220;2024-03-23T04:04:10;19.90;;;15.55;;
65706;SDS011;52423;43.512;5.220;2024-03-23T04:06:36;28.20;;;16.40;;
65706;SDS011;52423;43.512;5.220;2024-03-23T04:09:02;24.55;;;17.55;;
65706;SDS011;52423;43.512;5.220;2024-03-23T04:11:27;20.95;;;15.88;;
65706;SDS011;52423;43.512;5.220;2024-03-23T04:13:53;24.63;;;18.77;;
65706;SDS011;52423;43.512;5.220;2024-03-23T04:16:28;26.55;;;17.13;;
65706;SDS011;52423;43.512;5.220;2024-03-23T04:18:54;25.55;;;17.13;;
65706;SDS011;52423;43.512;5.220;2024-03-23T04:21:20;24.33;;;17.38;;
65706;SDS011;52423;43.512;5.220;2024-03-23T04:23:46;25.50;;;17.60;;
65706;SDS011;52423;43.512;5.220;2024-03-23T04:26:11;30.77;;;18.60;;
65706;SDS011;52423;43.512;5.220;2024-03-23T04:28:37;26.25;;;17.90;;
65706;SDS011;52423;43.512;5.220;2024-03-23T04:31:03;28.75;;;20.17;;
65706;SDS011;52423;43.512;5.220;2024-03-23T04:33:29;28.38;;;19.08;;
65706;SDS011;52423;43.512;5.220;2024-03-23T04:35:54;24.77;;;20.80;;
65706;SDS011;52423;43.512;5.220;2024-03-23T04:38:20;28.80;;;19.35;;
65706;SDS011;52423;43.512;5.220;2024-03-23T04:40:53;31.30;;;20.73;;
65706;SDS011;52423;43.512;5.220;2024-03-23T04:43:19;29.88;;;21.10;;
65706;SDS011;52423;43.512;5.220;2024-03-23T04:45:44;33.65;;;21.83;;
65706;SDS011;52423;43.512;5.220;2024-03-23T04:48:10;33.63;;;20.13;;
65706;SDS011;52423;43.512;5.220;2024-03-23T04:50:35;31.35;;;21.15;;
65706;SDS011;52423;43.512;5.220;2024-03-23T04:53:00;32.30;;;23.00;;
65706;SDS011;52423;43.512;5.220;2024-03-23T04:55:26;33.00;;;20.58;;
65706;SDS011;52423;43.512;5.220;2024-03-23T04:57:51;30.00;;;21.40;;
65706;SDS011;52423;43.512;5.220;2024-03-23T05:00:17;29.92;;;22.38;;
65706;SDS011;52423;43.512;5.220;2024-03-23T05:02:43;30.70;;;20.17;;
65706;SDS011;52423;43.512;5.220;2024-03-23T05:05:10;26.73;;;18.88;;
65706;SDS011;52423;43.512;5.220;2024-03-23T05:07:35;30.08;;;21.08;;
65706;SDS011;52423;43.512;5.220;2024-03-23T05:10:00;31.17;;;22.58;;
65706;SDS011;52423;43.512;5.220;2024-03-23T05:12:26;30.38;;;23.27;;
65706;SDS011;52423;43.512;5.220;2024-03-23T05:14:51;26.10;;;18.63;;
65706;SDS011;52423;43.512;5.220;2024-03-23T05:17:17;32.83;;;22.15;;
65706;SDS011;52423;43.512;5.220;2024-03-23T05:19:43;30.23;;;21.02;;
65706;SDS011;52423;43.512;5.220;2024-03-23T05:22:09;30.08;;;21.10;;
65706;SDS011;52423;43.512;5.220;2024-03-23T05:24:34;27.88;;;18.60;;
65706;SDS011;52423;43.512;5.220;2024-03-23T05:27:00;28.92;;;18.95;;
65706;SDS011;52423;43.512;5.220;2024-03-23T05:29:25;30.83;;;20.33;;
65706;SDS011;52423;43.512;5.220;2024-03-23T05:31:51;32.85;;;22.05;;
65706;SDS011;52423;43.512;5.220;2024-03-23T05:34:17;26.73;;;20.05;;
65706;SDS011;52423;43.512;5.220;2024-03-23T05:36:43;26.33;;;18.70;;
65706;SDS011;52423;43.512;5.220;2024-03-23T05:39:08;31.48;;;22.40;;
65706;SDS011;52423;43.512;5.220;2024-03-23T05:41:33;29.45;;;21.35;;
65706;SDS011;52423;43.512;5.220;2024-03-23T05:44:01;32.10;;;23.80;;
65706;SDS011;52423;43.512;5.220;2024-03-23T05:46:27;28.05;;;18.70;;
65706;SDS011;52423;43.512;5.220;2024-03-23T05:48:52;29.73;;;20.13;;
65706;SDS011;52423;43.512;5.220;2024-03-23T05:51:18;29.75;;;17.55;;
65706;SDS011;52423;43.512;5.220;2024-03-23T05:53:44;30.85;;;18.65;;
65706;SDS011;52423;43.512;5.220;2024-03-23T05:56:09;23.52;;;18.35;;
65706;SDS011;52423;43.512;5.220;2024-03-23T05:58:35;27.50;;;19.08;;
65706;SDS011;52423;43.512;5.220;2024-03-23T06:01:01;25.50;;;18.02;;
65706;SDS011;52423;43.512;5.220;2024-03-23T06:03:27;29.13;;;19.73;;
65706;SDS011;52423;43.512;5.220;2024-03-23T06:05:53;29.02;;;16.98;;
65706;SDS011;52423;43.512;5.220;2024-03-23T06:08:19;29.92;;;19.17;;
65706;SDS011;52423;43.512;5.220;2024-03-23T06:10:48;26.15;;;16.88;;
65706;SDS011;52423;43.512;5.220;2024-03-23T06:13:13;27.95;;;19.67;;
65706;SDS011;52423;43.512;5.220;2024-03-23T06:15:39;23.92;;;16.77;;
65706;SDS011;52423;43.512;5.220;2024-03-23T06:18:05;25.70;;;18.90;;
65706;SDS011;52423;43.512;5.220;2024-03-23T06:20:32;28.60;;;18.20;;
65706;SDS011;52423;43.512;5.220;2024-03-23T06:22:58;25.50;;;18.05;;
65706;SDS011;52423;43.512;5.220;2024-03-23T06:25:25;27.02;;;18.00;;
65706;SDS011;52423;43.512;5.220;2024-03-23T06:27:50;25.00;;;17.17;;
65706;SDS011;52423;43.512;5.220;2024-03-23T06:30:16;26.02;;;16.30;;
65706;SDS011;52423;43.512;5.220;2024-03-23T06:32:41;25.15;;;17.23;;
65706;SDS011;52423;43.512;5.220;2024-03-23T06:35:07;24.83;;;15.45;;
65706;SDS011;52423;43.512;5.220;2024-03-23T06:37:35;21.48;;;16.05;;
65706;SDS011;52423;43.512;5.220;2024-03-23T06:40:01;21.48;;;15.82;;
65706;SDS011;52423;43.512;5.220;2024-03-23T06:42:26;18.77;;;13.93;;
65706;SDS011;52423;43.512;5.220;2024-03-23T06:44:51;22.23;;;13.98;;
65706;SDS011;52423;43.512;5.220;2024-03-23T06:47:17;21.58;;;13.35;;
65706;SDS011;52423;43.512;5.220;2024-03-23T06:49:42;22.27;;;13.40;;
65706;SDS011;52423;43.512;5.220;2024-03-23T06:52:07;21.17;;;14.20;;
65706;SDS011;52423;43.512;5.220;2024-03-23T06:54:33;24.33;;;14.68;;
65706;SDS011;52423;43.512;5.220;2024-03-23T06:56:58;23.13;;;14.50;;
65706;SDS011;52423;43.512;5.220;2024-03-23T06:59:24;20.20;;;14.73;;
65706;SDS011;52423;43.512;5.220;2024-03-23T07:01:49;22.45;;;13.57;;
65706;SDS011;52423;43.512;5.220;2024-03-23T07:04:15;21.13;;;14.07;;
65706;SDS011;52423;43.512;5.220;2024-03-23T07:06:43;21.70;;;13.02;;
65706;SDS011;52423;43.512;5.220;2024-03-23T07:09:09;21.20;;;13.90;;
65706;SDS011;52423;43.512;5.220;2024-03-23T07:11:35;19.40;;;14.50;;
65706;SDS011;52423;43.512;5.220;2024-03-23T07:14:00;23.48;;;14.50;;
65706;SDS011;52423;43.512;5.220;2024-03-23T07:16:29;19.67;;;13.10;;
65706;SDS011;52423;43.512;5.220;2024-03-23T07:18:55;19.35;;;13.85;;
65706;SDS011;52423;43.512;5.220;2024-03-23T07:21:20;19.70;;;13.63;;
65706;SDS011;52423;43.512;5.220;2024-03-23T07:23:46;18.67;;;13.93;;
65706;SDS011;52423;43.512;5.220;2024-03-23T07:26:11;20.58;;;12.57;;
65706;SDS011;52423;43.512;5.220;2024-03-23T07:28:37;20.30;;;13.77;;
65706;SDS011;52423;43.512;5.220;2024-03-23T07:33:29;18.33;;;10.68;;
65706;SDS011;52423;43.512;5.220;2024-03-23T07:35:55;19.73;;;13.93;;
65706;SDS011;52423;43.512;5.220;2024-03-23T07:38:20;16.67;;;11.02;;
65706;SDS011;52423;43.512;5.220;2024-03-23T07:40:46;19.38;;;12.32;;
65706;SDS011;52423;43.512;5.220;2024-03-23T07:43:11;18.05;;;13.00;;
65706;SDS011;52423;43.512;5.220;2024-03-23T07:45:36;19.30;;;12.70;;
65706;SDS011;52423;43.512;5.220;2024-03-23T07:48:03;18.40;;;10.80;;
65706;SDS011;52423;43.512;5.220;2024-03-23T07:50:29;20.35;;;10.98;;
65706;SDS011;52423;43.512;5.220;2024-03-23T07:52:54;14.23;;;9.02;;
65706;SDS011;52423;43.512;5.220;2024-03-23T07:55:19;16.17;;;9.68;;
65706;SDS011;52423;43.512;5.220;2024-03-23T07:57:46;16.38;;;11.93;;
65706;SDS011;52423;43.512;5.220;2024-03-23T08:00:11;12.82;;;8.93;;
65706;SDS011;52423;43.512;5.220;2024-03-23T08:02:38;13.27;;;9.43;;
65706;SDS011;52423;43.512;5.220;2024-03-23T08:05:04;10.85;;;8.32;;
65706;SDS011;52423;43.512;5.220;2024-03-23T08:07:29;14.18;;;9.57;;
65706;SDS011;52423;43.512;5.220;2024-03-23T08:09:54;11.85;;;7.70;;
65706;SDS011;52423;43.512;5.220;2024-03-23T08:12:20;15.20;;;9.05;;
65706;SDS011;52423;43.512;5.220;2024-03-23T08:14:45;13.77;;;7.50;;
65706;SDS011;52423;43.512;5.220;2024-03-23T08:17:11;11.40;;;8.23;;
65706;SDS011;52423;43.512;5.220;2024-03-23T08:19:36;12.95;;;9.38;;
65706;SDS011;52423;43.512;5.220;2024-03-23T08:22:01;10.70;;;8.05;;
65706;SDS011;52423;43.512;5.220;2024-03-23T08:24:27;10.02;;;7.35;;
65706;SDS011;52423;43.512;5.220;2024-03-23T08:26:54;12.13;;;7.70;;
65706;SDS011;52423;43.512;5.220;2024-03-23T08:29:19;10.25;;;7.78;;
65706;SDS011;52423;43.512;5.220;2024-03-23T08:31:45;13.57;;;8.45;;
65706;SDS011;52423;43.512;5.220;2024-03-23T08:34:10;10.38;;;8.50;;
65706;SDS011;52423;43.512;5.220;2024-03-23T08:36:35;9.45;;;8.48;;
65706;SDS011;52423;43.512;5.220;2024-03-23T08:39:01;12.63;;;7.63;;
65706;SDS011;52423;43.512;5.220;2024-03-23T08:41:26;13.27;;;8.20;;
65706;SDS011;52423;43.512;5.220;2024-03-23T08:43:52;9.63;;;6.03;;
65706;SDS011;52423;43.512;5.220;2024-03-23T08:46:17;12.10;;;8.10;;
65706;SDS011;52423;43.512;5.220;2024-03-23T08:48:46;12.30;;;7.35;;
65706;SDS011;52423;43.512;5.220;2024-03-23T08:51:14;7.60;;;6.88;;
65706;SDS011;52423;43.512;5.220;2024-03-23T08:53:40;16.15;;;7.78;;
65706;SDS011;52423;43.512;5.220;2024-03-23T08:56:06;8.60;;;6.05;;
65706;SDS011;52423;43.512;5.220;2024-03-23T08:58:33;10.60;;;6.88;;
65706;SDS011;52423;43.512;5.220;2024-03-23T09:01:03;12.30;;;10.52;;
65706;SDS011;52423;43.512;5.220;2024-03-23T09:03:30;12.68;;;9.30;;
65706;SDS011;52423;43.512;5.220;2024-03-23T09:05:56;9.23;;;7.72;;
65706;SDS011;52423;43.512;5.220;2024-03-23T09:08:23;12.57;;;8.30;;
65706;SDS011;52423;43.512;5.220;2024-03-23T09:10:48;11.70;;;7.50;;
65706;SDS011;52423;43.512;5.220;2024-03-23T09:13:14;11.02;;;7.30;;
65706;SDS011;52423;43.512;5.220;2024-03-23T09:15:48;11.07;;;8.55;;
65706;SDS011;52423;43.512;5.220;2024-03-23T09:18:14;7.95;;;7.03;;
65706;SDS011;52423;43.512;5.220;2024-03-23T09:20:40;8.07;;;7.22;;
65706;SDS011;52423;43.512;5.220;2024-03-23T09:23:06;8.80;;;6.78;;
65706;SDS011;52423;43.512;5.220;2024-03-23T09:25:31;8.80;;;5.70;;
65706;SDS011;52423;43.512;5.220;2024-03-23T09:27:57;6.07;;;5.47;;
65706;SDS011;52423;43.512;5.220;2024-03-23T09:30:23;8.77;;;6.07;;
65706;SDS011;52423;43.512;5.220;2024-03-23T09:32:48;7.95;;;7.25;;
65706;SDS011;52423;43.512;5.220;2024-03-23T09:35:14;7.32;;;5.07;;
65706;SDS011;52423;43.512;5.220;2024-03-23T09:37:39;10.15;;;4.95;;
65706;SDS011;52423;43.512;5.220;2024-03-23T09:40:05;5.45;;;4.88;;
65706;SDS011;52423;43.512;5.220;2024-03-23T09:42:40;6.63;;;4.80;;
65706;SDS011;52423;43.512;5.220;2024-03-23T09:45:16;5.47;;;4.82;;
65706;SDS011;52423;43.512;5.220;2024-03-23T09:47:42;4.97;;;3.72;;
65706;SDS011;52423;43.512;5.220;2024-03-23T09:50:09;5.20;;;4.70;;
65706;SDS011;52423;43.512;5.220;2024-03-23T09:52:34;5.32;;;3.60;;
65706;SDS011;52423;43.512;5.220;2024-03-23T09:55:00;4.88;;;4.20;;
65706;SDS011;52423;43.512;5.220;2024-03-23T09:57:25;6.30;;;5.78;;
65706;SDS011;52423;43.512;5.220;2024-03-23T09:59:51;8.27;;;5.68;;
65706;SDS011;52423;43.512;5.220;2024-03-23T10:02:16;5.55;;;3.88;;
65706;SDS011;52423;43.512;5.220;2024-03-23T10:04:45;6.85;;;4.68;;
65706;SDS011;52423;43.512;5.220;2024-03-23T10:07:14;6.82;;;6.07;;
65706;SDS011;52423;43.512;5.220;2024-03-23T10:09:48;4.93;;;4.43;;
65706;SDS011;52423;43.512;5.220;2024-03-23T10:12:16;6.40;;;5.43;;
65706;SDS011;52423;43.512;5.220;2024-03-23T10:14:43;5.47;;;4.95;;
65706;SDS011;52423;43.512;5.220;2024-03-23T10:17:19;5.85;;;4.63;;
65706;SDS011;52423;43.512;5.220;2024-03-23T10:19:46;4.80;;;4.18;;
65706;SDS011;52423;43.512;5.220;2024-03-23T10:22:15;4.05;;;3.75;;
65706;SDS011;52423;43.512;5.220;2024-03-23T10:27:08;4.05;;;3.47;;
65706;SDS011;52423;43.512;5.220;2024-03-23T10:29:33;5.95;;;2.63;;
65706;SDS011;52423;43.512;5.220;2024-03-23T10:32:08;4.80;;;3.65;;
65706;SDS011;52423;43.512;5.220;2024-03-23T10:34:37;3.33;;;2.47;;
65706;SDS011;52423;43.512;5.220;2024-03-23T10:37:04;3.72;;;2.55;;
65706;SDS011;52423;43.512;5.220;2024-03-23T10:39:30;4.35;;;3.33;;
65706;SDS011;52423;43.512;5.220;2024-03-23T10:41:58;3.28;;;2.97;;
65706;SDS011;52423;43.512;5.220;2024-03-23T10:44:26;5.38;;;3.85;;
65706;SDS011;52423;43.512;5.220;2024-03-23T10:46:54;2.90;;;1.98;;
65706;SDS011;52423;43.512;5.220;2024-03-23T10:49:25;3.92;;;2.33;;
65706;SDS011;52423;43.512;5.220;2024-03-23T10:51:51;7.93;;;2.65;;
65706;SDS011;52423;43.512;5.220;2024-03-23T10:54:18;3.40;;;2.92;;
65706;SDS011;52423;43.512;5.220;2024-03-23T10:56:43;3.55;;;3.03;;
65706;SDS011;52423;43.512;5.220;2024-03-23T10:59:10;3.50;;;1.92;;
65706;SDS011;52423;43.512;5.220;2024-03-23T11:01:53;4.93;;;3.42;;
65706;SDS011;52423;43.512;5.220;2024-03-23T11:04:32;3.13;;;1.73;;
65706;SDS011;52423;43.512;5.220;2024-03-23T11:06:58;3.03;;;2.67;;
65706;SDS011;52423;43.512;5.220;2024-03-23T11:09:42;4.30;;;3.70;;
65706;SDS011;52423;43.512;5.220;2024-03-23T11:12:17;2.65;;;2.45;;
65706;SDS011;52423;43.512;5.220;2024-03-23T11:14:54;3.20;;;2.78;;
65706;SDS011;52423;43.512;5.220;2024-03-23T11:17:22;2.80;;;2.60;;
65706;SDS011;52423;43.512;5.220;2024-03-23T11:20:01;3.45;;;3.20;;
65706;SDS011;52423;43.512;5.220;2024-03-23T11:25:02;2.20;;;2.00;;
65706;SDS011;52423;43.512;5.220;2024-03-23T11:27:54;4.97;;;3.35;;
65706;SDS011;52423;43.512;5.220;2024-03-23T11:30:23;3.08;;;1.88;;
65706;SDS011;52423;43.512;5.220;2024-03-23T11:32:50;1.88;;;1.42;;
65706;SDS011;52423;43.512;5.220;2024-03-23T11:40:31;2.15;;;1.63;;
65706;SDS011;52423;43.512;5.220;2024-03-23T11:43:01;3.17;;;2.97;;
65706;SDS011;52423;43.512;5.220;2024-03-23T11:45:28;1.85;;;1.75;;
65706;SDS011;52423;43.512;5.220;2024-03-23T11:48:07;2.75;;;1.55;;
65706;SDS011;52423;43.512;5.220;2024-03-23T11:50:36;2.70;;;1.67;;
65706;SDS011;52423;43.512;5.220;2024-03-23T11:55:48;3.10;;;1.75;;
65706;SDS011;52423;43.512;5.220;2024-03-23T11:58:14;2.25;;;2.10;;
65706;SDS011;52423;43.512;5.220;2024-03-23T12:00:40;4.82;;;2.13;;
65706;SDS011;52423;43.512;5.220;2024-03-23T12:03:06;7.03;;;2.03;;
65706;SDS011;52423;43.512;5.220;2024-03-23T12:05:32;3.25;;;3.03;;
65706;SDS011;52423;43.512;5.220;2024-03-23T12:10:52;4.05;;;1.65;;
65706;SDS011;52423;43.512;5.220;2024-03-23T12:13:21;1.67;;;1.52;;
65706;SDS011;52423;43.512;5.220;2024-03-23T12:18:16;3.33;;;3.13;;
65706;SDS011;52423;43.512;5.220;2024-03-23T12:20:42;2.25;;;1.95;;
65706;SDS011;52423;43.512;5.220;2024-03-23T12:23:08;4.18;;;3.40;;
65706;SDS011;52423;43.512;5.220;2024-03-23T12:25:38;3.60;;;3.28;;
65706;SDS011;52423;43.512;5.220;2024-03-23T12:28:04;3.22;;;2.75;;
65706;SDS011;52423;43.512;5.220;2024-03-23T12:30:38;4.18;;;2.53;;
65706;SDS011;52423;43.512;5.220;2024-03-23T12:33:04;5.10;;;4.80;;
65706;SDS011;52423;43.512;5.220;2024-03-23T12:35:30;3.88;;;3.00;;
65706;SDS011;52423;43.512;5.220;2024-03-23T12:37:56;3.00;;;2.70;;
65706;SDS011;52423;43.512;5.220;2024-03-23T12:40:22;3.60;;;3.30;;
65706;SDS011;52423;43.512;5.220;2024-03-23T12:42:47;5.95;;;4.22;;
65706;SDS011;52423;43.512;5.220;2024-03-23T12:45:12;4.15;;;3.95;;
65706;SDS011;52423;43.512;5.220;2024-03-23T12:47:38;5.30;;;4.80;;
65706;SDS011;52423;43.512;5.220;2024-03-23T12:50:03;22.08;;;13.73;;
65706;SDS011;52423;43.512;5.220;2024-03-23T12:52:29;5.30;;;4.85;;
65706;SDS011;52423;43.512;5.220;2024-03-23T12:54:55;4.53;;;3.17;;
65706;SDS011;52423;43.512;5.220;2024-03-23T12:57:22;3.65;;;3.30;;
65706;SDS011;52423;43.512;5.220;2024-03-23T12:59:51;3.47;;;3.17;;
65706;SDS011;52423;43.512;5.220;2024-03-23T13:02:20;3.35;;;1.60;;
65706;SDS011;52423;43.512;5.220;2024-03-23T13:04:46;3.00;;;2.53;;
65706;SDS011;52423;43.512;5.220;2024-03-23T13:07:14;3.88;;;2.47;;
65706;SDS011;52423;43.512;5.220;2024-03-23T13:09:40;4.82;;;2.05;;
65706;SDS011;52423;43.512;5.220;2024-03-23T13:12:06;3.75;;;2.53;;
65706;SDS011;52423;43.512;5.220;2024-03-23T13:14:31;1.70;;;1.40;;
65706;SDS011;52423;43.512;5.220;2024-03-23T13:16:57;5.95;;;4.25;;
65706;SDS011;52423;43.512;5.220;2024-03-23T13:19:22;2.75;;;1.40;;
65706;SDS011;52423;43.512;5.220;2024-03-23T13:21:52;5.20;;;4.75;;
65706;SDS011;52423;43.512;5.220;2024-03-23T13:26:50;3.05;;;2.75;;
65706;SDS011;52423;43.512;5.220;2024-03-23T13:29:16;2.60;;;2.47;;
65706;SDS011;52423;43.512;5.220;2024-03-23T13:31:42;2.17;;;1.92;;
65706;SDS011;52423;43.512;5.220;2024-03-23T13:34:07;2.90;;;1.55;;
65706;SDS011;52423;43.512;5.220;2024-03-23T13:36:32;3.00;;;1.45;;
65706;SDS011;52423;43.512;5.220;2024-03-23T13:38:58;2.35;;;2.00;;
65706;SDS011;52423;43.512;5.220;2024-03-23T13:41:24;2.33;;;1.63;;
65706;SDS011;52423;43.512;5.220;2024-03-23T13:43:49;2.35;;;2.25;;
65706;SDS011;52423;43.512;5.220;2024-03-23T13:46:15;2.83;;;2.40;;
65706;SDS011;52423;43.512;5.220;2024-03-23T13:48:40;2.95;;;2.72;;
65706;SDS011;52423;43.512;5.220;2024-03-23T13:51:07;2.50;;;2.30;;
65706;SDS011;52423;43.512;5.220;2024-03-23T13:53:32;3.90;;;3.45;;
65706;SDS011;52423;43.512;5.220;2024-03-23T13:55:58;2.55;;;2.03;;
65706;SDS011;52423;43.512;5.220;2024-03-23T13:58:23;2.92;;;1.65;;
65706;SDS011;52423;43.512;5.220;2024-03-23T14:00:50;2.03;;;0.85;;
65706;SDS011;52423;43.512;5.220;2024-03-23T14:03:16;1.42;;;1.33;;
65706;SDS011;52423;43.512;5.220;2024-03-23T14:05:43;3.88;;;3.58;;
65706;SDS011;52423;43.512;5.220;2024-03-23T14:08:09;3.88;;;3.55;;
65706;SDS011;52423;43.512;5.220;2024-03-23T14:10:35;7.35;;;6.57;;
65706;SDS011;52423;43.512;5.220;2024-03-23T14:13:01;4.68;;;4.28;;
65706;SDS011;52423;43.512;5.220;2024-03-23T14:15:28;2.63;;;2.30;;
65706;SDS011;52423;43.512;5.220;2024-03-23T14:17:55;2.30;;;1.23;;
65706;SDS011;52423;43.512;5.220;2024-03-23T14:20:21;2.67;;;1.60;;
65706;SDS011;52423;43.512;5.220;2024-03-23T14:22:47;3.80;;;3.13;;
65706;SDS011;52423;43.512;5.220;2024-03-23T14:25:13;3.67;;;2.60;;
65706;SDS011;52423;43.512;5.220;2024-03-23T14:27:38;1.67;;;1.63;;
65706;SDS011;52423;43.512;5.220;2024-03-23T14:30:03;2.13;;;1.73;;
65706;SDS011;52423;43.512;5.220;2024-03-23T14:32:30;1.58;;;1.05;;
65706;SDS011;52423;43.512;5.220;2024-03-23T14:34:59;2.63;;;1.52;;
65706;SDS011;52423;43.512;5.220;2024-03-23T14:37:25;1.52;;;1.42;;
65706;SDS011;52423;43.512;5.220;2024-03-23T14:39:50;2.88;;;1.40;;
65706;SDS011;52423;43.512;5.220;2024-03-23T14:42:16;2.53;;;1.25;;
65706;SDS011;52423;43.512;5.220;2024-03-23T14:44:41;2.22;;;1.67;;
65706;SDS011;52423;43.512;5.220;2024-03-23T14:47:07;1.70;;;0.35;;
65706;SDS011;52423;43.512;5.220;2024-03-23T14:49:32;4.20;;;2.88;;
65706;SDS011;52423;43.512;5.220;2024-03-23T14:51:58;3.67;;;2.55;;
65706;SDS011;52423;43.512;5.220;2024-03-23T14:54:23;1.67;;;1.58;;
65706;SDS011;52423;43.512;5.220;2024-03-23T14:56:49;2.83;;;2.53;;
65706;SDS011;52423;43.512;5.220;2024-03-23T14:59:15;2.55;;;2.38;;
65706;SDS011;52423;43.512;5.220;2024-03-23T15:01:40;5.07;;;4.60;;
65706;SDS011;52423;43.512;5.220;2024-03-23T15:04:06;10.90;;;7.25;;
65706;SDS011;52423;43.512;5.220;2024-03-23T15:06:32;1.42;;;1.02;;
65706;SDS011;52423;43.512;5.220;2024-03-23T15:08:58;2.17;;;1.90;;
65706;SDS011;52423;43.512;5.220;2024-03-23T15:11:24;1.63;;;1.20;;
65706;SDS011;52423;43.512;5.220;2024-03-23T15:13:49;2.20;;;2.05;;
65706;SDS011;52423;43.512;5.220;2024-03-23T15:16:18;2.97;;;1.42;;
65706;SDS011;52423;43.512;5.220;2024-03-23T15:18:45;4.13;;;1.30;;
65706;SDS011;52423;43.512;5.220;2024-03-23T15:21:11;1.33;;;1.23;;
65706;SDS011;52423;43.512;5.220;2024-03-23T15:23:37;2.00;;;1.52;;
65706;SDS011;52423;43.512;5.220;2024-03-23T15:26:02;2.53;;;2.25;;
65706;SDS011;52423;43.512;5.220;2024-03-23T15:28:29;1.00;;;0.52;;
65706;SDS011;52423;43.512;5.220;2024-03-23T15:31:27;1.67;;;1.23;;
65706;SDS011;52423;43.512;5.220;2024-03-23T15:33:54;2.83;;;2.63;;
65706;SDS011;52423;43.512;5.220;2024-03-23T15:36:20;2.20;;;1.23;;
65706;SDS011;52423;43.512;5.220;2024-03-23T15:38:45;2.53;;;1.13;;
65706;SDS011;52423;43.512;5.220;2024-03-23T15:41:10;1.90;;;0.77;;
65706;SDS011;52423;43.512;5.220;2024-03-23T15:43:36;1.90;;;0.95;;
65706;SDS011;52423;43.512;5.220;2024-03-23T15:46:02;1.42;;;1.13;;